createdAt,value
2019-04-30T00:00:02.288Z,10.20
2019-04-30T00:02:35.846Z,8.05
2019-04-30T00:05:01.387Z,8.65
2019-04-30T00:07:29.524Z,11.05
2019-04-30T00:09:57.645Z,10.23
2019-04-30T00:12:25.735Z,9.23
2019-04-30T00:14:52.680Z,13.43
2019-04-30T00:17:21.236Z,11.83
2019-04-30T00:19:50.384Z,10.85
2019-04-30T00:22:16.736Z,9.58
2019-04-30T00:24:46.793Z,8.18
2019-04-30T00:27:12.339Z,8.23
2019-04-30T00:29:39.102Z,11.15
2019-04-30T00:32:07.872Z,9.78
2019-04-30T00:34:35.899Z,6.22
2019-04-30T00:37:07.414Z,10.50
2019-04-30T00:39:35.530Z,5.78
2019-04-30T00:42:02.512Z,8.08
2019-04-30T00:44:29.788Z,9.83
2019-04-30T00:47:00.587Z,6.00
2019-04-30T00:49:26.654Z,8.80
2019-04-30T00:51:57.007Z,5.67
2019-04-30T00:54:27.110Z,9.33
2019-04-30T00:56:51.278Z,6.23
2019-04-30T00:59:18.291Z,7.60
2019-04-30T01:04:37.318Z,4.50
2019-04-30T01:07:05.202Z,6.87
2019-04-30T01:09:33.124Z,4.72
2019-04-30T01:12:00.041Z,6.87
2019-04-30T01:14:28.310Z,8.53
2019-04-30T01:16:57.011Z,4.35
2019-04-30T01:19:30.028Z,5.90
2019-04-30T01:21:52.504Z,6.20
2019-04-30T01:24:23.439Z,8.38
2019-04-30T01:26:48.577Z,4.87
2019-04-30T01:29:16.765Z,7.37
2019-04-30T01:31:43.734Z,5.30
2019-04-30T01:34:14.047Z,5.03
2019-04-30T01:36:43.481Z,6.03
2019-04-30T01:39:09.458Z,4.80
2019-04-30T01:41:36.541Z,5.53
2019-04-30T01:44:03.712Z,8.68
2019-04-30T01:46:32.157Z,8.25
2019-04-30T01:48:59.001Z,11.20
2019-04-30T01:51:25.896Z,5.62
2019-04-30T01:53:52.756Z,5.95
2019-04-30T01:56:38.915Z,5.28
2019-04-30T01:59:09.173Z,7.55
2019-04-30T02:01:39.035Z,7.53
2019-04-30T02:06:32.741Z,8.23
2019-04-30T02:08:59.499Z,6.28
2019-04-30T02:11:26.346Z,6.25
2019-04-30T02:13:53.200Z,6.95
2019-04-30T02:16:21.164Z,7.17
2019-04-30T02:18:49.518Z,8.70
2019-04-30T02:21:16.655Z,4.60
2019-04-30T02:23:43.698Z,9.53
2019-04-30T02:26:10.635Z,7.85
2019-04-30T02:28:39.271Z,6.27
2019-04-30T02:31:26.005Z,9.37
2019-04-30T02:33:54.692Z,6.73
2019-04-30T02:36:40.516Z,7.70
2019-04-30T02:39:10.818Z,7.33
2019-04-30T02:41:36.289Z,11.30
2019-04-30T02:44:03.042Z,7.03
2019-04-30T02:46:32.347Z,8.50
2019-04-30T02:48:59.774Z,10.77
2019-04-30T02:51:29.932Z,6.10
2019-04-30T02:56:39.811Z,10.70
2019-04-30T02:59:05.568Z,9.05
2019-04-30T03:01:32.420Z,10.77
2019-04-30T03:03:59.908Z,9.10
2019-04-30T03:06:29.733Z,11.87
2019-04-30T03:08:55.874Z,23.10
2019-04-30T03:11:22.621Z,10.13
2019-04-30T03:13:49.759Z,12.00
2019-04-30T03:16:20.763Z,21.93
2019-04-30T03:18:51.893Z,11.37
2019-04-30T03:21:36.941Z,8.70
2019-04-30T03:24:03.877Z,7.60
2019-04-30T03:26:30.828Z,9.17
2019-04-30T03:29:00.686Z,8.70
2019-04-30T03:31:26.441Z,12.97
2019-04-30T03:33:53.186Z,9.80
2019-04-30T03:36:21.769Z,8.80
2019-04-30T03:38:50.098Z,8.37
2019-04-30T03:41:19.922Z,9.60
2019-04-30T03:43:46.005Z,10.28
2019-04-30T03:46:12.955Z,7.17
2019-04-30T03:48:39.797Z,8.73
2019-04-30T03:51:06.761Z,7.42
2019-04-30T03:53:34.206Z,16.30
2019-04-30T03:56:01.565Z,10.50
2019-04-30T03:58:29.340Z,9.55
2019-04-30T04:03:42.088Z,12.80
2019-04-30T04:11:51.844Z,12.63
2019-04-30T04:14:19.777Z,14.23
2019-04-30T04:16:46.924Z,19.60
2019-04-30T04:19:13.716Z,14.93
2019-04-30T04:21:40.589Z,15.35
2019-04-30T04:24:10.423Z,18.85
2019-04-30T04:26:36.088Z,16.47
2019-04-30T04:29:03.344Z,16.70
2019-04-30T04:31:30.111Z,15.70
2019-04-30T04:33:59.802Z,16.35
2019-04-30T04:36:25.605Z,19.63
2019-04-30T04:38:52.441Z,14.85
2019-04-30T04:41:19.748Z,23.52
2019-04-30T04:44:01.273Z,10.40
2019-04-30T04:46:30.594Z,11.53
2019-04-30T04:48:59.440Z,13.45
2019-04-30T04:51:34.383Z,9.75
2019-04-30T04:53:54.238Z,16.07
2019-04-30T04:56:33.952Z,17.62
2019-04-30T04:59:15.061Z,15.28
2019-04-30T05:01:42.935Z,15.28
2019-04-30T05:04:11.830Z,17.77
2019-04-30T05:07:00.137Z,13.58
2019-04-30T05:09:28.576Z,21.10
2019-04-30T05:11:55.816Z,16.23
2019-04-30T05:14:23.589Z,11.05
2019-04-30T05:16:50.484Z,21.65
2019-04-30T05:19:18.672Z,19.05
2019-04-30T05:21:45.776Z,22.85
2019-04-30T05:24:12.628Z,15.70
2019-04-30T05:26:40.576Z,22.27
2019-04-30T05:29:09.444Z,10.75
2019-04-30T05:31:36.180Z,20.40
2019-04-30T05:34:03.114Z,18.25
2019-04-30T05:36:30.101Z,19.02
2019-04-30T05:38:58.573Z,19.15
2019-04-30T05:41:25.827Z,18.73
2019-04-30T05:43:52.610Z,23.02
2019-04-30T05:46:19.742Z,11.33
2019-04-30T05:48:46.707Z,18.02
2019-04-30T05:51:13.575Z,13.03
2019-04-30T05:53:40.527Z,14.95
2019-04-30T05:56:09.238Z,18.10
2019-04-30T05:58:36.410Z,26.03
2019-04-30T06:01:03.272Z,12.53
2019-04-30T06:03:33.297Z,13.20
2019-04-30T06:05:59.672Z,18.23
2019-04-30T06:08:29.165Z,15.85
2019-04-30T06:10:59.743Z,17.70
2019-04-30T06:13:32.043Z,13.58
2019-04-30T06:16:03.388Z,15.68
2019-04-30T06:18:50.285Z,10.48
2019-04-30T06:21:21.296Z,12.58
2019-04-30T06:23:46.480Z,18.82
2019-04-30T06:26:13.385Z,16.55
2019-04-30T06:28:41.614Z,16.67
2019-04-30T06:31:09.163Z,17.30
2019-04-30T06:33:36.087Z,12.80
2019-04-30T06:36:03.040Z,16.80
2019-04-30T06:38:29.915Z,12.58
2019-04-30T06:40:58.744Z,11.38
2019-04-30T06:43:25.638Z,14.50
2019-04-30T06:45:52.602Z,8.85
2019-04-30T06:48:19.898Z,11.43
2019-04-30T06:50:49.226Z,15.30
2019-04-30T06:53:16.488Z,12.70
2019-04-30T06:55:43.425Z,10.35
2019-04-30T06:58:15.095Z,16.25
2019-04-30T07:00:40.124Z,10.38
2019-04-30T07:03:09.659Z,14.05
2019-04-30T07:05:37.066Z,11.22
2019-04-30T07:08:35.773Z,14.30
2019-04-30T07:11:11.271Z,12.53
2019-04-30T07:13:39.521Z,9.45
2019-04-30T07:16:08.326Z,15.03
2019-04-30T07:18:35.308Z,12.33
2019-04-30T07:21:02.168Z,10.00
2019-04-30T07:23:29.041Z,11.03
2019-04-30T07:25:55.903Z,15.05
2019-04-30T07:28:40.304Z,16.97
2019-04-30T07:31:07.202Z,11.27
2019-04-30T07:33:20.981Z,10.08
2019-04-30T07:35:49.836Z,11.03
2019-04-30T07:38:16.672Z,12.55
2019-04-30T07:40:56.785Z,9.55
2019-04-30T07:43:23.758Z,11.35
2019-04-30T07:45:50.644Z,14.28
2019-04-30T07:48:21.122Z,14.60
2019-04-30T07:50:46.335Z,23.50
2019-04-30T07:53:33.221Z,10.63
2019-04-30T07:56:00.181Z,10.80
2019-04-30T07:58:29.861Z,9.10
2019-04-30T08:00:56.475Z,8.33
2019-04-30T08:03:25.604Z,12.18
2019-04-30T08:05:54.923Z,9.35
2019-04-30T08:08:25.410Z,13.40
2019-04-30T08:10:51.031Z,12.55
2019-04-30T08:13:21.242Z,8.95
2019-04-30T08:15:46.772Z,9.60
2019-04-30T08:18:13.515Z,9.98
2019-04-30T08:20:40.340Z,8.85
2019-04-30T08:23:20.145Z,13.05
2019-04-30T08:28:23.084Z,9.98
2019-04-30T08:30:51.169Z,7.80
2019-04-30T08:33:19.370Z,8.00
2019-04-30T08:35:46.252Z,9.48
2019-04-30T08:38:13.121Z,8.63
2019-04-30T08:40:53.132Z,9.58
2019-04-30T08:43:09.550Z,8.70
2019-04-30T08:45:38.452Z,6.80
2019-04-30T08:48:05.164Z,9.53
2019-04-30T08:50:32.032Z,7.05
2019-04-30T08:52:59.720Z,14.63
2019-04-30T08:55:27.227Z,18.23
2019-04-30T08:58:06.885Z,11.83
2019-04-30T09:00:22.624Z,9.93
2019-04-30T09:02:49.474Z,8.45
2019-04-30T09:05:23.784Z,8.85
2019-04-30T09:08:12.316Z,11.63
2019-04-30T09:10:39.386Z,10.83
2019-04-30T09:13:06.298Z,7.33
2019-04-30T09:15:33.287Z,10.63
2019-04-30T09:18:05.808Z,10.18
2019-04-30T09:20:29.760Z,5.20
2019-04-30T09:22:56.619Z,9.88
2019-04-30T09:25:23.470Z,9.93
2019-04-30T09:27:50.429Z,11.28
2019-04-30T09:30:18.844Z,7.17
2019-04-30T09:32:45.863Z,8.87
2019-04-30T09:35:12.587Z,7.72
2019-04-30T09:37:41.766Z,9.58
2019-04-30T09:40:17.702Z,7.77
2019-04-30T09:42:36.685Z,15.90
2019-04-30T09:45:08.673Z,6.35
2019-04-30T09:47:35.983Z,8.70
2019-04-30T09:50:04.144Z,8.10
2019-04-30T09:52:33.892Z,10.25
2019-04-30T09:55:01.121Z,10.18
2019-04-30T09:57:29.668Z,8.00
2019-04-30T09:59:56.519Z,8.83
2019-04-30T10:02:23.469Z,10.03
2019-04-30T10:04:50.778Z,13.40
2019-04-30T10:07:19.493Z,9.15
2019-04-30T10:09:46.755Z,8.13
2019-04-30T10:12:14.696Z,10.45
2019-04-30T10:14:41.647Z,7.97
2019-04-30T10:17:11.625Z,10.78
2019-04-30T10:19:39.324Z,9.65
2019-04-30T10:22:06.367Z,7.37
2019-04-30T10:24:33.988Z,9.13
2019-04-30T10:27:01.080Z,12.37
2019-04-30T10:29:28.125Z,12.47
2019-04-30T10:31:54.883Z,6.70
2019-04-30T10:34:21.708Z,12.65
2019-04-30T10:36:49.487Z,9.28
2019-04-30T10:39:16.328Z,105.63
2019-04-30T10:41:43.172Z,10.48
2019-04-30T10:44:10.113Z,8.50
2019-04-30T10:46:36.880Z,9.05
2019-04-30T10:49:03.836Z,8.43
2019-04-30T10:51:30.692Z,6.03
2019-04-30T10:53:59.150Z,12.68
2019-04-30T10:56:26.331Z,6.55
2019-04-30T10:58:53.300Z,9.03
2019-04-30T11:01:20.140Z,8.00
2019-04-30T11:03:46.892Z,6.47
2019-04-30T11:06:13.630Z,5.72
2019-04-30T11:08:40.484Z,7.25
2019-04-30T11:11:07.321Z,13.08
2019-04-30T11:13:34.164Z,9.25
2019-04-30T11:16:12.082Z,11.57
2019-04-30T11:18:29.957Z,6.62
2019-04-30T11:20:57.160Z,6.25
2019-04-30T11:23:24.808Z,7.50
2019-04-30T11:25:52.288Z,11.53
2019-04-30T11:28:20.068Z,4.58
2019-04-30T11:30:49.384Z,5.45
2019-04-30T11:33:16.694Z,11.78
2019-04-30T11:35:44.007Z,6.45
2019-04-30T11:38:10.831Z,7.10
2019-04-30T11:40:39.953Z,8.23
2019-04-30T11:43:06.450Z,10.53
2019-04-30T11:46:05.537Z,7.97
2019-04-30T11:48:32.288Z,6.50
2019-04-30T11:50:59.566Z,8.88
2019-04-30T11:53:28.828Z,6.72
2019-04-30T11:55:55.369Z,11.93
2019-04-30T11:58:22.314Z,9.15
2019-04-30T12:00:49.548Z,5.62
2019-04-30T12:03:16.735Z,8.58
2019-04-30T12:05:43.588Z,11.05
2019-04-30T12:08:12.314Z,6.20
2019-04-30T12:10:43.541Z,10.40
2019-04-30T12:13:23.436Z,7.42
2019-04-30T12:15:50.384Z,8.13
2019-04-30T12:18:17.340Z,9.18
2019-04-30T12:20:44.265Z,6.62
2019-04-30T12:23:11.916Z,4.55
2019-04-30T12:25:41.170Z,5.75
2019-04-30T12:28:09.433Z,5.53
2019-04-30T12:30:36.291Z,4.35
2019-04-30T12:33:03.176Z,8.23
2019-04-30T12:35:30.016Z,6.10
2019-04-30T12:37:58.768Z,4.47
2019-04-30T12:40:29.170Z,9.73
2019-04-30T12:42:54.280Z,4.50
2019-04-30T12:45:21.269Z,4.55
2019-04-30T12:47:50.107Z,7.03
2019-04-30T12:53:44.012Z,8.90
2019-04-30T12:56:16.724Z,6.50
2019-04-30T12:58:43.827Z,9.38
2019-04-30T13:01:10.799Z,6.45
2019-04-30T13:03:39.784Z,4.72
2019-04-30T13:06:07.241Z,9.73
2019-04-30T13:08:35.235Z,7.28
2019-04-30T13:11:03.608Z,4.53
2019-04-30T13:13:32.228Z,5.12
2019-04-30T13:16:00.007Z,5.22
2019-04-30T13:18:27.008Z,9.43
2019-04-30T13:20:53.830Z,9.40
2019-04-30T13:23:20.957Z,19.23
2019-04-30T13:25:51.474Z,19.90
2019-04-30T13:28:19.152Z,13.13
2019-04-30T13:30:46.456Z,17.32
2019-04-30T13:33:15.107Z,15.48
2019-04-30T13:35:42.125Z,13.35
2019-04-30T13:38:25.775Z,12.43
2019-04-30T13:40:54.527Z,21.55
2019-04-30T13:43:40.189Z,13.90
2019-04-30T13:46:08.593Z,15.05
2019-04-30T13:48:35.758Z,14.07
2019-04-30T13:51:02.552Z,17.42
2019-04-30T13:53:29.612Z,22.85
2019-04-30T13:55:56.353Z,21.07
2019-04-30T13:58:23.252Z,14.85
2019-04-30T14:00:50.078Z,13.43
2019-04-30T14:03:29.108Z,16.82
2019-04-30T14:05:56.079Z,17.48
2019-04-30T14:08:30.647Z,28.32
2019-04-30T14:10:59.201Z,15.32
2019-04-30T14:13:27.035Z,19.13
2019-04-30T14:15:53.980Z,17.50
2019-04-30T14:18:28.576Z,22.22
2019-04-30T14:20:49.395Z,18.00
2019-04-30T14:23:16.352Z,20.52
2019-04-30T14:25:55.376Z,17.55
2019-04-30T14:28:11.908Z,15.50
2019-04-30T14:30:39.272Z,14.33
2019-04-30T14:33:06.347Z,18.62
2019-04-30T14:35:33.303Z,12.73
2019-04-30T14:38:00.235Z,15.08
2019-04-30T14:40:29.804Z,18.85
2019-04-30T14:42:59.607Z,16.70
2019-04-30T14:45:38.423Z,15.00
2019-04-30T14:48:10.981Z,12.60
2019-04-30T14:50:38.598Z,13.90
2019-04-30T14:53:24.169Z,14.87
2019-04-30T14:56:09.535Z,22.35
2019-04-30T14:58:39.323Z,23.30
2019-04-30T15:01:09.356Z,16.12
2019-04-30T15:03:56.800Z,9.93
2019-04-30T15:06:23.659Z,11.18
2019-04-30T15:08:50.500Z,8.13
2019-04-30T15:11:19.042Z,6.97
2019-04-30T15:13:46.163Z,9.43
2019-04-30T15:16:13.020Z,9.28
2019-04-30T15:18:39.865Z,35.13
2019-04-30T15:21:06.711Z,12.37
2019-04-30T15:26:28.581Z,7.80
2019-04-30T15:28:57.484Z,7.45
2019-04-30T15:31:25.016Z,8.93
2019-04-30T15:34:02.646Z,6.42
2019-04-30T15:36:22.228Z,7.78
2019-04-30T15:41:58.149Z,11.65
2019-04-30T15:44:25.108Z,10.82
2019-04-30T15:46:51.844Z,10.45
2019-04-30T15:49:18.608Z,12.40
2019-04-30T15:51:45.448Z,11.97
2019-04-30T15:54:12.430Z,10.08
2019-04-30T15:56:40.798Z,9.63
2019-04-30T15:59:09.739Z,4.77
2019-04-30T16:01:37.283Z,5.03
2019-04-30T16:04:04.395Z,7.50
2019-04-30T16:06:31.296Z,6.95
2019-04-30T16:12:13.315Z,9.58
2019-04-30T16:14:42.034Z,8.50
2019-04-30T16:17:13.268Z,8.93
2019-04-30T16:19:40.019Z,10.28
2019-04-30T16:22:07.101Z,11.08
2019-04-30T16:24:34.075Z,8.28
2019-04-30T16:27:00.911Z,15.83
2019-04-30T16:29:27.763Z,7.90
2019-04-30T16:31:54.503Z,7.30
2019-04-30T16:34:21.377Z,9.78
2019-04-30T16:36:49.219Z,8.50
2019-04-30T16:39:18.557Z,7.40
2019-04-30T16:41:45.538Z,7.20
2019-04-30T16:44:12.403Z,8.78
2019-04-30T16:46:39.573Z,9.40
2019-04-30T16:49:06.459Z,8.20
2019-04-30T16:51:33.233Z,8.83
2019-04-30T16:54:00.067Z,7.05
2019-04-30T16:56:28.628Z,10.35
2019-04-30T17:01:57.504Z,11.70
2019-04-30T17:04:31.171Z,12.68
2019-04-30T17:07:02.459Z,10.68
2019-04-30T17:09:50.906Z,18.75
2019-04-30T17:12:19.760Z,13.90
2019-04-30T17:14:49.251Z,12.43
2019-04-30T17:17:16.543Z,11.08
2019-04-30T17:19:43.459Z,12.73
2019-04-30T17:22:10.735Z,15.25
2019-04-30T17:24:39.390Z,20.35
2019-04-30T17:27:16.491Z,22.63
2019-04-30T17:29:35.175Z,29.10
2019-04-30T17:32:02.043Z,16.40
2019-04-30T17:34:30.839Z,21.60
2019-04-30T17:36:59.126Z,25.03
2019-04-30T17:39:26.419Z,16.43
2019-04-30T17:41:53.399Z,19.02
2019-04-30T17:44:20.370Z,23.67
2019-04-30T17:46:49.729Z,10.13
2019-04-30T17:49:18.836Z,11.25
2019-04-30T17:51:45.817Z,13.30
2019-04-30T17:54:12.991Z,22.87
2019-04-30T17:56:41.025Z,12.30
2019-04-30T17:59:08.083Z,13.18
2019-04-30T18:01:35.328Z,17.25
2019-04-30T18:04:02.181Z,31.12
2019-04-30T18:06:29.033Z,23.25
2019-04-30T18:08:55.969Z,19.42
2019-04-30T18:11:22.830Z,21.42
2019-04-30T18:13:50.715Z,16.52
2019-04-30T18:16:18.746Z,20.37
2019-04-30T18:21:41.096Z,34.85
2019-04-30T18:27:06.475Z,46.40
2019-04-30T18:29:33.308Z,43.13
2019-04-30T18:32:00.304Z,41.15
2019-04-30T18:34:29.138Z,37.45
2019-04-30T18:36:55.820Z,41.00
2019-04-30T18:39:22.672Z,43.50
2019-04-30T18:41:49.651Z,41.98
2019-04-30T18:44:16.525Z,51.05
2019-04-30T18:46:43.363Z,50.23
2019-04-30T18:49:10.399Z,68.50
2019-04-30T18:51:42.125Z,70.97
2019-04-30T18:54:05.715Z,54.53
2019-04-30T18:56:32.490Z,40.75
2019-04-30T18:58:59.337Z,38.90
2019-04-30T19:01:26.291Z,38.35
2019-04-30T19:03:53.252Z,39.73
2019-04-30T19:09:13.172Z,35.15
2019-04-30T19:11:43.518Z,32.15
2019-04-30T19:14:29.383Z,34.55
2019-04-30T19:17:14.863Z,36.15
2019-04-30T19:19:55.504Z,35.05
2019-04-30T19:22:22.419Z,50.55
2019-04-30T19:24:58.215Z,63.40
2019-04-30T19:27:18.654Z,67.37
2019-04-30T19:29:45.752Z,130.87
2019-04-30T19:32:12.732Z,105.83
2019-04-30T19:34:39.615Z,110.42
2019-04-30T19:37:08.559Z,119.87
2019-04-30T19:39:35.224Z,96.53
2019-04-30T19:42:02.082Z,143.05
2019-04-30T19:44:29.332Z,129.27
2019-04-30T19:46:58.161Z,116.12
2019-04-30T19:49:25.224Z,84.73
2019-04-30T19:52:05.602Z,72.08
2019-04-30T19:54:21.094Z,49.83
2019-04-30T19:56:50.076Z,52.17
2019-04-30T19:59:31.725Z,42.00
2019-04-30T20:02:04.358Z,39.00
2019-04-30T20:04:56.049Z,37.78
2019-04-30T20:07:29.087Z,30.12
2019-04-30T20:10:04.212Z,33.28
2019-04-30T20:12:31.827Z,44.83
2019-04-30T20:15:00.470Z,43.33
2019-04-30T20:17:29.489Z,48.65
2019-04-30T20:19:56.124Z,33.63
2019-04-30T20:22:23.430Z,42.73
2019-04-30T20:24:51.389Z,35.03
2019-04-30T20:27:18.981Z,35.25
2019-04-30T20:29:46.075Z,40.78
2019-04-30T20:32:12.920Z,39.13
2019-04-30T20:34:39.795Z,37.50
2019-04-30T20:37:08.544Z,27.30
2019-04-30T20:39:39.341Z,27.60
2019-04-30T20:42:05.989Z,28.60
2019-04-30T20:44:32.864Z,25.80
2019-04-30T20:47:00.936Z,23.85
2019-04-30T20:49:29.217Z,30.72
2019-04-30T20:51:56.437Z,16.67
2019-04-30T20:54:23.263Z,26.42
2019-04-30T20:56:51.072Z,24.35
2019-04-30T20:59:19.006Z,25.72
2019-04-30T21:01:46.383Z,32.38
2019-04-30T21:04:13.212Z,33.42
2019-04-30T21:06:39.996Z,28.15
2019-04-30T21:09:06.855Z,26.07
2019-04-30T21:11:34.804Z,24.07
2019-04-30T21:14:01.637Z,26.65
2019-04-30T21:16:28.398Z,28.73
2019-04-30T21:18:55.332Z,29.55
2019-04-30T21:21:22.197Z,31.85
2019-04-30T21:23:49.225Z,31.60
2019-04-30T21:26:38.124Z,32.10
2019-04-30T21:29:11.082Z,25.88
2019-04-30T21:31:35.411Z,27.70
2019-04-30T21:34:04.641Z,24.43
2019-04-30T21:36:31.577Z,31.57
2019-04-30T21:38:59.045Z,23.15
2019-04-30T21:41:26.167Z,27.27
2019-04-30T21:43:53.024Z,29.40
2019-04-30T21:46:19.857Z,29.70
2019-04-30T21:48:48.734Z,28.00
2019-04-30T21:51:15.482Z,26.10
2019-04-30T21:53:55.692Z,27.37
2019-04-30T21:56:22.516Z,31.35
2019-04-30T21:58:49.371Z,30.50
2019-04-30T22:01:18.048Z,28.70
2019-04-30T22:03:47.692Z,30.57
2019-04-30T22:06:14.547Z,33.42
2019-04-30T22:08:41.479Z,32.60
2019-04-30T22:11:09.779Z,31.33
2019-04-30T22:13:36.730Z,38.17
2019-04-30T22:16:03.495Z,37.85
2019-04-30T22:18:30.329Z,41.35
2019-04-30T22:20:57.604Z,38.25
2019-04-30T22:23:24.536Z,41.33
2019-04-30T22:25:52.404Z,35.80
2019-04-30T22:28:21.068Z,37.80
2019-04-30T22:30:48.386Z,38.02
2019-04-30T22:33:16.718Z,37.83
2019-04-30T22:43:40.980Z,41.35
2019-04-30T22:46:15.768Z,36.10
2019-04-30T22:48:42.637Z,36.30
2019-04-30T22:51:09.410Z,38.53
2019-04-30T22:53:36.628Z,37.55
2019-04-30T22:56:04.593Z,37.08
2019-04-30T22:58:31.645Z,43.25
2019-04-30T23:04:04.226Z,35.05
2019-04-30T23:06:31.267Z,44.63
2019-04-30T23:08:58.144Z,34.08
2019-04-30T23:11:25.182Z,37.00
2019-04-30T23:13:52.268Z,36.88
2019-04-30T23:16:19.225Z,44.08
2019-04-30T23:18:46.203Z,37.70
2019-04-30T23:21:13.056Z,32.93
2019-04-30T23:23:39.924Z,43.15
2019-04-30T23:26:06.885Z,36.42
2019-04-30T23:28:34.959Z,44.88
2019-04-30T23:31:24.920Z,43.25
2019-04-30T23:33:52.151Z,30.25
2019-04-30T23:36:19.099Z,36.25
2019-04-30T23:38:46.888Z,36.77
2019-04-30T23:41:13.721Z,33.48
2019-04-30T23:43:40.676Z,29.80
2019-04-30T23:46:07.583Z,29.98
2019-04-30T23:48:35.039Z,30.12
2019-04-30T23:51:01.888Z,30.40
2019-04-30T23:53:28.866Z,28.70
2019-04-30T23:55:55.785Z,28.00
2019-04-30T23:58:22.615Z,27.37
